createdAt,value
2018-12-31T00:02:18.003Z,12.43
2018-12-31T00:04:46.452Z,14.23
2018-12-31T00:07:14.886Z,12.25
2018-12-31T00:09:43.335Z,11.22
2018-12-31T00:12:11.786Z,12.93
2018-12-31T00:14:40.234Z,10.95
2018-12-31T00:17:08.670Z,10.88
2018-12-31T00:19:37.117Z,11.43
2018-12-31T00:22:05.655Z,10.82
2018-12-31T00:24:34.085Z,10.55
2018-12-31T00:27:02.531Z,10.20
2018-12-31T00:29:30.962Z,9.53
2018-12-31T00:31:59.414Z,8.73
2018-12-31T00:34:27.830Z,8.90
2018-12-31T00:36:56.287Z,10.20
2018-12-31T00:39:24.703Z,8.15
2018-12-31T00:41:53.151Z,7.85
2018-12-31T00:44:21.583Z,7.30
2018-12-31T00:46:50.023Z,7.97
2018-12-31T00:49:18.465Z,7.10
2018-12-31T00:51:46.914Z,6.50
2018-12-31T00:54:15.346Z,7.42
2018-12-31T00:56:43.783Z,6.30
2018-12-31T00:59:12.211Z,6.75
2018-12-31T01:01:40.644Z,6.60
2018-12-31T01:04:09.097Z,6.12
2018-12-31T01:06:37.508Z,6.58
2018-12-31T01:09:06.614Z,6.50
2018-12-31T01:11:35.039Z,5.58
2018-12-31T01:14:03.506Z,6.40
2018-12-31T01:16:32.027Z,6.28
2018-12-31T01:19:00.471Z,5.78
2018-12-31T01:21:28.909Z,6.22
2018-12-31T01:23:57.358Z,6.08
2018-12-31T01:26:25.775Z,6.87
2018-12-31T01:28:54.214Z,6.42
2018-12-31T01:31:22.652Z,6.30
2018-12-31T01:33:52.604Z,5.70
2018-12-31T01:36:21.103Z,5.65
2018-12-31T01:38:49.559Z,6.08
2018-12-31T01:41:17.983Z,6.00
2018-12-31T01:43:46.427Z,5.28
2018-12-31T01:46:14.845Z,5.30
2018-12-31T01:48:43.279Z,4.50
2018-12-31T01:51:11.721Z,4.87
2018-12-31T01:53:40.191Z,5.53
2018-12-31T01:56:09.625Z,5.67
2018-12-31T01:58:38.041Z,4.60
2018-12-31T02:01:06.470Z,4.87
2018-12-31T02:03:34.961Z,4.30
2018-12-31T02:06:03.387Z,4.20
2018-12-31T02:08:31.816Z,3.90
2018-12-31T02:11:00.245Z,3.92
2018-12-31T02:13:28.679Z,3.52
2018-12-31T02:15:57.120Z,3.92
2018-12-31T02:18:25.535Z,3.55
2018-12-31T02:20:53.982Z,2.87
2018-12-31T02:23:22.478Z,3.35
2018-12-31T02:25:50.990Z,3.15
2018-12-31T02:28:19.403Z,2.87
2018-12-31T02:30:48.021Z,3.33
2018-12-31T02:33:16.449Z,3.05
2018-12-31T02:35:44.879Z,2.62
2018-12-31T02:38:13.306Z,2.40
2018-12-31T02:40:41.739Z,2.75
2018-12-31T02:43:10.170Z,2.60
2018-12-31T02:45:38.670Z,2.12
2018-12-31T02:48:07.082Z,2.37
2018-12-31T02:50:35.520Z,2.75
2018-12-31T02:53:04.017Z,1.90
2018-12-31T02:55:33.983Z,2.15
2018-12-31T02:58:02.417Z,2.27
2018-12-31T03:00:30.884Z,2.05
2018-12-31T03:02:59.326Z,2.05
2018-12-31T03:05:27.738Z,2.55
2018-12-31T03:07:56.173Z,2.37
2018-12-31T03:10:24.589Z,2.40
2018-12-31T03:12:53.051Z,2.67
2018-12-31T03:15:21.526Z,2.40
2018-12-31T03:17:49.958Z,1.98
2018-12-31T03:20:18.403Z,2.30
2018-12-31T03:22:48.543Z,1.85
2018-12-31T03:25:16.995Z,2.47
2018-12-31T03:27:45.438Z,1.72
2018-12-31T03:30:13.859Z,2.70
2018-12-31T03:32:42.319Z,1.95
2018-12-31T03:35:10.807Z,2.00
2018-12-31T03:37:39.252Z,1.90
2018-12-31T03:40:07.819Z,1.90
2018-12-31T03:42:36.338Z,2.20
2018-12-31T03:45:05.984Z,1.65
2018-12-31T03:47:34.423Z,1.70
2018-12-31T03:50:02.877Z,2.00
2018-12-31T03:52:31.287Z,1.98
2018-12-31T03:54:59.730Z,1.67
2018-12-31T03:57:28.154Z,1.75
2018-12-31T03:59:56.586Z,1.70
2018-12-31T04:02:25.004Z,1.35
2018-12-31T04:04:53.443Z,1.40
2018-12-31T04:07:21.853Z,1.30
2018-12-31T04:09:50.300Z,1.20
2018-12-31T04:12:18.750Z,1.47
2018-12-31T04:14:47.192Z,1.85
2018-12-31T04:17:15.607Z,1.47
2018-12-31T04:19:44.056Z,1.90
2018-12-31T04:22:12.538Z,1.82
2018-12-31T04:24:40.989Z,2.00
2018-12-31T04:27:09.419Z,1.70
2018-12-31T04:29:37.839Z,2.12
2018-12-31T04:32:06.283Z,1.72
2018-12-31T04:34:34.778Z,1.70
2018-12-31T04:37:03.231Z,2.30
2018-12-31T04:39:31.663Z,2.05
2018-12-31T04:42:00.104Z,2.10
2018-12-31T04:44:28.519Z,2.22
2018-12-31T04:46:56.967Z,2.58
2018-12-31T04:49:25.371Z,2.40
2018-12-31T04:51:53.810Z,2.42
2018-12-31T04:54:22.230Z,2.42
2018-12-31T04:56:50.676Z,2.98
2018-12-31T04:59:19.082Z,2.42
2018-12-31T05:01:47.526Z,2.47
2018-12-31T05:04:15.935Z,2.30
2018-12-31T05:06:45.919Z,2.50
2018-12-31T05:09:14.339Z,3.30
2018-12-31T05:11:42.795Z,2.70
2018-12-31T05:14:11.236Z,2.85
2018-12-31T05:16:39.658Z,3.42
2018-12-31T05:19:08.103Z,2.65
2018-12-31T05:21:36.516Z,2.47
2018-12-31T05:24:04.951Z,2.70
2018-12-31T05:26:33.362Z,2.20
2018-12-31T05:29:01.813Z,2.10
2018-12-31T05:31:30.236Z,2.47
2018-12-31T05:33:58.682Z,1.70
2018-12-31T05:36:27.093Z,1.87
2018-12-31T05:38:55.530Z,2.00
2018-12-31T05:41:23.953Z,1.50
2018-12-31T05:43:52.382Z,1.77
2018-12-31T05:46:20.847Z,1.87
2018-12-31T05:48:49.286Z,2.00
2018-12-31T05:51:17.702Z,1.50
2018-12-31T05:53:46.149Z,1.35
2018-12-31T05:56:14.570Z,1.62
2018-12-31T05:58:43.015Z,1.50
2018-12-31T06:01:11.423Z,1.45
2018-12-31T06:03:39.861Z,1.15
2018-12-31T06:06:08.283Z,1.47
2018-12-31T06:08:36.719Z,1.30
2018-12-31T06:11:05.132Z,1.25
2018-12-31T06:13:33.545Z,1.00
2018-12-31T06:16:01.974Z,1.00
2018-12-31T06:18:30.391Z,1.00
2018-12-31T06:20:58.851Z,1.10
2018-12-31T06:23:27.269Z,1.20
2018-12-31T06:25:55.695Z,1.10
2018-12-31T06:28:24.111Z,1.30
2018-12-31T06:30:52.555Z,1.50
2018-12-31T06:33:20.962Z,1.10
2018-12-31T06:35:49.402Z,1.32
2018-12-31T06:38:17.818Z,1.05
2018-12-31T06:40:46.270Z,1.20
2018-12-31T06:43:14.674Z,0.95
2018-12-31T06:45:43.126Z,1.35
2018-12-31T06:48:11.554Z,2.00
2018-12-31T06:50:39.995Z,1.30
2018-12-31T06:53:08.600Z,1.37
2018-12-31T06:55:37.159Z,1.30
2018-12-31T06:58:05.590Z,1.07
2018-12-31T07:00:34.021Z,1.30
2018-12-31T07:03:02.468Z,0.90
2018-12-31T07:05:30.875Z,1.00
2018-12-31T07:07:59.369Z,1.40
2018-12-31T07:10:27.830Z,1.00
2018-12-31T07:12:56.325Z,1.57
2018-12-31T07:15:24.740Z,1.50
2018-12-31T07:17:53.172Z,1.40
2018-12-31T07:20:21.604Z,1.47
2018-12-31T07:22:50.036Z,2.15
2018-12-31T07:25:18.473Z,3.85
2018-12-31T07:27:46.920Z,5.65
2018-12-31T07:30:16.876Z,4.30
2018-12-31T07:32:45.399Z,3.52
2018-12-31T07:35:13.820Z,3.70
2018-12-31T07:37:43.917Z,2.72
2018-12-31T07:40:12.334Z,3.00
2018-12-31T07:42:40.779Z,2.83
2018-12-31T07:45:09.211Z,2.45
2018-12-31T07:47:37.810Z,2.87
2018-12-31T07:50:06.296Z,1.50
2018-12-31T07:52:34.726Z,2.08
2018-12-31T07:55:03.168Z,1.90
2018-12-31T07:57:31.685Z,2.08
2018-12-31T08:00:00.662Z,2.30
2018-12-31T08:02:29.099Z,3.47
2018-12-31T08:04:57.542Z,4.28
2018-12-31T08:07:25.955Z,5.90
2018-12-31T08:09:54.398Z,4.12
2018-12-31T08:12:22.807Z,3.30
2018-12-31T08:14:51.247Z,2.30
2018-12-31T08:17:19.669Z,2.60
2018-12-31T08:19:48.112Z,2.60
2018-12-31T08:22:16.553Z,2.58
2018-12-31T08:24:44.987Z,2.72
2018-12-31T08:27:13.477Z,3.22
2018-12-31T08:29:41.917Z,1.95
2018-12-31T08:32:10.348Z,3.45
2018-12-31T08:34:38.778Z,3.17
2018-12-31T08:37:07.211Z,3.25
2018-12-31T08:39:35.643Z,4.03
2018-12-31T08:42:04.082Z,3.60
2018-12-31T08:44:32.494Z,5.17
2018-12-31T08:47:00.935Z,6.05
2018-12-31T08:49:29.406Z,4.55
2018-12-31T08:51:57.822Z,3.95
2018-12-31T08:54:26.262Z,3.65
2018-12-31T08:56:54.698Z,4.80
2018-12-31T08:59:23.137Z,6.28
2018-12-31T09:01:51.761Z,6.60
2018-12-31T09:04:20.187Z,3.80
2018-12-31T09:06:48.647Z,3.45
2018-12-31T09:09:17.196Z,3.58
2018-12-31T09:11:45.651Z,3.40
2018-12-31T09:14:14.062Z,2.12
2018-12-31T09:16:42.490Z,1.80
2018-12-31T09:19:10.991Z,2.25
2018-12-31T09:21:39.440Z,1.62
2018-12-31T09:24:07.883Z,1.72
2018-12-31T09:26:36.309Z,1.55
2018-12-31T09:29:04.828Z,1.15
2018-12-31T09:31:33.243Z,1.25
2018-12-31T09:34:01.678Z,1.30
2018-12-31T09:36:31.655Z,1.22
2018-12-31T09:39:00.106Z,1.20
2018-12-31T09:41:28.548Z,1.72
2018-12-31T09:43:56.991Z,2.98
2018-12-31T09:46:25.407Z,1.90
2018-12-31T09:48:53.838Z,1.95
2018-12-31T09:51:22.271Z,2.50
2018-12-31T09:53:50.748Z,2.60
2018-12-31T09:56:21.911Z,3.77
2018-12-31T09:58:50.352Z,4.80
2018-12-31T10:01:18.779Z,3.30
2018-12-31T10:03:47.674Z,2.27
2018-12-31T10:06:16.292Z,2.10
2018-12-31T10:08:49.285Z,3.37
2018-12-31T10:11:15.762Z,2.42
2018-12-31T10:13:44.223Z,2.45
2018-12-31T10:16:12.675Z,2.00
2018-12-31T10:18:41.091Z,5.55
2018-12-31T10:21:09.535Z,4.60
2018-12-31T10:23:37.950Z,4.05
2018-12-31T10:26:06.400Z,2.80
2018-12-31T10:28:34.846Z,2.62
2018-12-31T10:31:03.302Z,2.12
2018-12-31T10:33:31.724Z,2.22
2018-12-31T10:36:00.168Z,2.60
2018-12-31T10:38:28.589Z,1.80
2018-12-31T10:40:57.098Z,2.70
2018-12-31T10:43:25.522Z,3.80
2018-12-31T10:45:53.970Z,2.20
2018-12-31T10:48:22.399Z,2.60
2018-12-31T10:50:50.830Z,2.50
2018-12-31T10:53:19.257Z,4.72
2018-12-31T10:55:47.690Z,3.70
2018-12-31T10:58:16.107Z,3.33
2018-12-31T11:00:46.094Z,3.30
2018-12-31T11:03:14.534Z,2.15
2018-12-31T11:05:43.039Z,2.95
2018-12-31T11:08:11.504Z,2.80
2018-12-31T11:10:39.955Z,2.85
2018-12-31T11:13:08.375Z,2.17
2018-12-31T11:15:36.820Z,1.98
2018-12-31T11:18:05.257Z,2.62
2018-12-31T11:20:33.684Z,2.17
2018-12-31T11:23:02.206Z,2.55
2018-12-31T11:25:30.627Z,2.40
2018-12-31T11:27:59.077Z,2.70
2018-12-31T11:30:27.508Z,2.65
2018-12-31T11:32:55.954Z,4.55
2018-12-31T11:35:24.389Z,4.42
2018-12-31T11:37:52.952Z,3.42
2018-12-31T11:40:21.404Z,2.80
2018-12-31T11:42:51.406Z,2.35
2018-12-31T11:45:20.007Z,2.17
2018-12-31T11:47:48.438Z,2.30
2018-12-31T11:50:16.896Z,2.52
2018-12-31T11:52:45.347Z,2.08
2018-12-31T11:55:13.779Z,1.80
2018-12-31T11:57:42.223Z,2.70
2018-12-31T12:00:11.019Z,1.92
2018-12-31T12:02:39.470Z,2.70
2018-12-31T12:05:07.922Z,1.85
2018-12-31T12:07:36.358Z,2.80
2018-12-31T12:10:05.145Z,2.98
2018-12-31T12:12:33.575Z,2.50
2018-12-31T12:15:02.012Z,1.85
2018-12-31T12:17:30.451Z,2.72
2018-12-31T12:19:58.913Z,2.58
2018-12-31T12:22:27.340Z,2.05
2018-12-31T12:24:55.783Z,2.30
2018-12-31T12:27:24.201Z,1.92
2018-12-31T12:29:52.693Z,2.22
2018-12-31T12:32:21.123Z,2.12
2018-12-31T12:34:49.570Z,1.50
2018-12-31T12:37:19.627Z,1.50
2018-12-31T12:39:48.077Z,1.80
2018-12-31T12:42:16.521Z,1.52
2018-12-31T12:44:44.962Z,1.60
2018-12-31T12:47:13.423Z,2.50
2018-12-31T12:49:41.839Z,2.67
2018-12-31T12:52:10.293Z,2.10
2018-12-31T12:54:38.719Z,2.85
2018-12-31T12:57:07.237Z,3.25
2018-12-31T12:59:35.660Z,5.75
2018-12-31T13:02:04.118Z,14.93
2018-12-31T13:04:32.624Z,12.40
2018-12-31T13:07:01.157Z,6.22
2018-12-31T13:09:29.668Z,7.65
2018-12-31T13:11:58.115Z,3.17
2018-12-31T13:14:26.535Z,3.33
2018-12-31T13:16:55.074Z,5.20
2018-12-31T13:19:23.488Z,3.67
2018-12-31T13:21:51.928Z,4.20
2018-12-31T13:24:20.351Z,3.42
2018-12-31T13:26:49.185Z,3.60
2018-12-31T13:29:17.603Z,5.15
2018-12-31T13:31:46.051Z,5.05
2018-12-31T13:34:14.551Z,4.85
2018-12-31T13:36:42.977Z,4.87
2018-12-31T13:39:11.779Z,6.20
2018-12-31T13:41:40.229Z,5.65
2018-12-31T13:44:08.663Z,5.37
2018-12-31T13:46:38.655Z,6.72
2018-12-31T13:49:07.087Z,6.20
2018-12-31T13:51:35.810Z,6.55
2018-12-31T13:54:04.295Z,6.90
2018-12-31T13:56:32.726Z,6.60
2018-12-31T13:59:01.186Z,6.17
2018-12-31T14:01:31.158Z,7.12
2018-12-31T14:04:00.039Z,6.85
2018-12-31T14:06:28.467Z,7.20
2018-12-31T14:08:56.913Z,7.25
2018-12-31T14:11:25.404Z,9.05
2018-12-31T14:13:53.858Z,9.18
2018-12-31T14:16:22.378Z,9.45
2018-12-31T14:18:50.916Z,8.73
2018-12-31T14:21:19.318Z,8.95
2018-12-31T14:23:47.836Z,11.45
2018-12-31T14:26:16.274Z,7.50
2018-12-31T14:28:44.820Z,9.00
2018-12-31T14:31:13.249Z,10.50
2018-12-31T14:33:41.683Z,10.60
2018-12-31T14:36:10.126Z,10.13
2018-12-31T14:38:38.642Z,10.32
2018-12-31T14:41:07.066Z,14.65
2018-12-31T14:43:35.790Z,16.60
2018-12-31T14:46:04.252Z,14.07
2018-12-31T14:48:32.699Z,12.28
2018-12-31T14:51:01.265Z,11.75
2018-12-31T14:53:29.720Z,11.63
2018-12-31T14:55:58.354Z,9.78
2018-12-31T14:58:26.801Z,8.25
2018-12-31T15:00:55.243Z,6.92
2018-12-31T15:03:23.684Z,8.00
2018-12-31T15:05:52.131Z,8.50
2018-12-31T15:08:20.835Z,9.68
2018-12-31T15:10:49.362Z,8.95
2018-12-31T15:13:17.788Z,10.08
2018-12-31T15:15:46.297Z,9.58
2018-12-31T15:18:14.748Z,11.55
2018-12-31T15:20:43.660Z,8.63
2018-12-31T15:23:12.104Z,8.55
2018-12-31T15:25:40.561Z,9.38
2018-12-31T15:28:09.018Z,11.60
2018-12-31T15:30:37.519Z,10.30
2018-12-31T15:33:05.999Z,15.58
2018-12-31T15:35:34.502Z,14.43
2018-12-31T15:38:03.011Z,15.43
2018-12-31T15:40:31.447Z,14.90
2018-12-31T15:42:59.895Z,16.48
2018-12-31T15:45:28.310Z,15.03
2018-12-31T15:47:56.775Z,19.00
2018-12-31T15:50:25.337Z,16.57
2018-12-31T15:52:53.775Z,16.05
2018-12-31T15:55:22.258Z,13.78
2018-12-31T15:57:50.723Z,12.95
2018-12-31T16:00:19.535Z,11.60
2018-12-31T16:02:48.094Z,10.68
2018-12-31T16:05:16.531Z,10.70
2018-12-31T16:07:46.033Z,10.53
2018-12-31T16:10:14.684Z,9.38
2018-12-31T16:12:43.599Z,10.80
2018-12-31T16:15:12.049Z,19.60
2018-12-31T16:17:40.483Z,21.70
2018-12-31T16:20:09.100Z,20.15
2018-12-31T16:22:37.529Z,18.60
2018-12-31T16:25:06.043Z,17.12
2018-12-31T16:27:34.484Z,19.50
2018-12-31T16:30:02.982Z,14.33
2018-12-31T16:32:31.403Z,14.63
2018-12-31T16:34:59.873Z,13.65
2018-12-31T16:37:28.341Z,9.65
2018-12-31T16:39:56.777Z,9.28
2018-12-31T16:42:25.250Z,7.90
2018-12-31T16:44:53.816Z,9.25
2018-12-31T16:47:22.427Z,9.10
2018-12-31T16:49:50.872Z,10.15
2018-12-31T16:52:20.403Z,11.10
2018-12-31T16:54:48.942Z,16.70
2018-12-31T16:57:17.389Z,19.30
2018-12-31T16:59:45.811Z,18.27
2018-12-31T17:02:14.279Z,14.50
2018-12-31T17:04:43.086Z,16.30
2018-12-31T17:07:11.561Z,10.82
2018-12-31T17:09:40.088Z,9.28
2018-12-31T17:12:08.536Z,10.00
2018-12-31T17:14:36.964Z,9.35
2018-12-31T17:17:05.497Z,9.98
2018-12-31T17:19:34.008Z,8.50
2018-12-31T17:22:02.545Z,8.13
2018-12-31T17:24:30.962Z,7.60
2018-12-31T17:26:59.416Z,8.08
2018-12-31T17:29:27.838Z,6.45
2018-12-31T17:31:56.372Z,6.90
2018-12-31T17:34:24.811Z,7.70
2018-12-31T17:36:53.261Z,7.53
2018-12-31T17:39:21.740Z,5.70
2018-12-31T17:41:50.186Z,5.67
2018-12-31T17:44:19.061Z,5.28
2018-12-31T17:46:47.527Z,6.53
2018-12-31T17:49:16.078Z,22.50
2018-12-31T17:51:44.506Z,34.90
2018-12-31T17:54:12.970Z,42.40
2018-12-31T17:56:41.387Z,50.00
2018-12-31T17:59:09.836Z,46.48
2018-12-31T18:01:38.271Z,38.42
2018-12-31T18:04:06.921Z,23.12
2018-12-31T18:06:35.350Z,14.78
2018-12-31T18:09:07.038Z,6.12
2018-12-31T18:11:35.459Z,5.08
2018-12-31T18:14:03.902Z,5.62
2018-12-31T18:16:32.336Z,9.40
2018-12-31T18:19:00.911Z,12.30
2018-12-31T18:21:29.332Z,12.80
2018-12-31T18:23:57.791Z,198.20
2018-12-31T18:26:26.222Z,36.28
2018-12-31T18:28:54.656Z,8.15
2018-12-31T18:31:23.073Z,6.50
2018-12-31T18:33:51.566Z,4.67
2018-12-31T18:36:20.334Z,5.50
2018-12-31T18:38:48.771Z,4.67
2018-12-31T18:41:17.200Z,4.55
2018-12-31T18:43:45.646Z,4.50
2018-12-31T18:46:14.190Z,4.83
2018-12-31T18:48:42.599Z,5.00
2018-12-31T18:51:11.043Z,5.05
2018-12-31T18:53:39.742Z,4.55
2018-12-31T18:56:08.290Z,5.53
2018-12-31T18:58:36.787Z,6.30
2018-12-31T19:01:05.226Z,6.10
2018-12-31T19:03:33.661Z,6.72
2018-12-31T19:06:02.098Z,7.08
2018-12-31T19:08:30.611Z,7.15
2018-12-31T19:10:59.051Z,7.05
2018-12-31T19:13:27.485Z,6.65
2018-12-31T19:15:56.414Z,8.08
2018-12-31T19:18:24.837Z,8.60
2018-12-31T19:20:53.299Z,9.60
2018-12-31T19:23:21.762Z,9.08
2018-12-31T19:25:50.179Z,8.70
2018-12-31T19:28:18.610Z,6.55
2018-12-31T19:30:47.132Z,7.95
2018-12-31T19:33:15.639Z,7.40
2018-12-31T19:35:44.055Z,8.88
2018-12-31T19:38:12.508Z,8.00
2018-12-31T19:40:40.940Z,8.03
2018-12-31T19:43:09.389Z,8.85
2018-12-31T19:45:37.797Z,9.15
2018-12-31T19:48:06.247Z,9.53
2018-12-31T19:50:34.658Z,9.83
2018-12-31T19:53:03.131Z,10.28
2018-12-31T19:55:31.940Z,11.00
2018-12-31T19:58:00.385Z,17.62
2018-12-31T20:00:28.817Z,15.25
2018-12-31T20:02:57.341Z,35.05
2018-12-31T20:05:25.811Z,29.65
2018-12-31T20:07:54.256Z,28.07
2018-12-31T20:10:23.574Z,11.50
2018-12-31T20:12:52.129Z,14.23
2018-12-31T20:15:20.587Z,591.55
2018-12-31T20:17:49.483Z,486.95
2018-12-31T20:20:18.074Z,395.60
2018-12-31T20:22:46.568Z,35.70
2018-12-31T20:25:15.135Z,13.32
2018-12-31T20:27:45.176Z,13.10
2018-12-31T20:30:13.686Z,60.92
2018-12-31T20:32:42.109Z,19.67
2018-12-31T20:35:10.575Z,17.02
2018-12-31T20:37:38.998Z,13.90
2018-12-31T20:40:07.451Z,13.60
2018-12-31T20:42:35.876Z,15.68
2018-12-31T20:45:04.972Z,15.10
2018-12-31T20:47:33.387Z,27.82
2018-12-31T20:50:02.256Z,21.17
2018-12-31T20:52:30.707Z,99.62
2018-12-31T20:54:59.127Z,91.40
2018-12-31T20:57:27.584Z,88.60
2018-12-31T20:59:56.010Z,34.18
2018-12-31T21:02:24.466Z,22.75
2018-12-31T21:04:53.164Z,19.05
2018-12-31T21:07:21.616Z,17.35
2018-12-31T21:09:50.044Z,16.65
2018-12-31T21:12:18.493Z,16.82
2018-12-31T21:14:46.923Z,19.15
2018-12-31T21:17:15.646Z,20.75
2018-12-31T21:19:44.092Z,24.72
2018-12-31T21:22:12.544Z,26.30
2018-12-31T21:24:40.979Z,22.45
2018-12-31T21:27:09.442Z,21.27
2018-12-31T21:29:37.939Z,21.68
2018-12-31T21:32:06.406Z,21.45
2018-12-31T21:34:36.464Z,27.90
2018-12-31T21:37:05.025Z,26.65
2018-12-31T21:39:33.426Z,23.12
2018-12-31T21:42:01.864Z,27.50
2018-12-31T21:44:30.722Z,26.02
2018-12-31T21:46:59.209Z,21.57
2018-12-31T21:49:27.761Z,18.25
2018-12-31T21:51:56.191Z,14.35
2018-12-31T21:54:24.626Z,14.03
2018-12-31T21:56:53.062Z,15.35
2018-12-31T21:59:21.512Z,13.90
2018-12-31T22:01:49.943Z,12.73
2018-12-31T22:04:18.410Z,13.95
2018-12-31T22:06:46.845Z,15.15
2018-12-31T22:09:15.287Z,12.90
2018-12-31T22:11:44.499Z,16.50
2018-12-31T22:14:12.950Z,16.32
2018-12-31T22:16:41.377Z,18.60
2018-12-31T22:19:09.926Z,18.50
2018-12-31T22:21:38.543Z,17.87
2018-12-31T22:24:06.995Z,16.25
2018-12-31T22:26:35.442Z,16.93
2018-12-31T22:29:03.886Z,18.05
2018-12-31T22:31:32.347Z,17.82
2018-12-31T22:34:00.774Z,19.37
2018-12-31T22:36:29.279Z,17.27
2018-12-31T22:38:57.711Z,17.60
2018-12-31T22:41:26.147Z,17.60
2018-12-31T22:43:54.582Z,16.60
2018-12-31T22:46:23.052Z,18.77
2018-12-31T22:48:51.608Z,22.30
2018-12-31T22:51:20.533Z,24.47
2018-12-31T22:53:49.052Z,22.45
2018-12-31T22:56:17.522Z,21.23
2018-12-31T22:58:47.735Z,17.23
2018-12-31T23:01:16.178Z,23.32
2018-12-31T23:03:44.984Z,51.80
2018-12-31T23:06:13.504Z,88.60
2018-12-31T23:08:44.318Z,116.55
2018-12-31T23:11:12.785Z,152.40
2018-12-31T23:13:41.339Z,267.13
2018-12-31T23:16:10.270Z,339.88
2018-12-31T23:18:38.713Z,392.40
2018-12-31T23:21:07.158Z,252.60
2018-12-31T23:23:35.611Z,146.02
2018-12-31T23:26:05.695Z,102.80
2018-12-31T23:28:35.763Z,98.97
2018-12-31T23:31:04.191Z,86.30
2018-12-31T23:33:32.663Z,90.70
2018-12-31T23:36:01.156Z,91.42
2018-12-31T23:38:29.620Z,76.45
2018-12-31T23:40:58.063Z,74.27
2018-12-31T23:43:27.404Z,34.67
2018-12-31T23:45:56.171Z,36.08
2018-12-31T23:48:24.633Z,97.10
2018-12-31T23:50:53.046Z,73.17
2018-12-31T23:53:21.509Z,44.25
2018-12-31T23:55:50.214Z,32.65
2018-12-31T23:58:18.660Z,22.13
